Caro, Michigan
Current Conditions -  °F | °C
As of 11:14 PM on Wednesday 28 Jan 2015 (Local Time) from KCFS Reporting Station
Overcast Overcast  
Wind Chill: -10°   Ceiling: 12000
Heat Index: -4°   Visibility: 10mi
Dew Point: -12°   Wind: 12mph
Humidity: 53%   Direction: 160°SSE
Pressure: 30.09"   Gusts: NA
Location:  43.49°N, 83.4°W
Report Text: KCFS 290414Z AUTO 16010KT 10SM OVC120 M04/M12 A3009 RMK AO2 T10381121
Loading
Personal Weather Stations






























Interactive Weather Map New forecast layout! Learn more

10-Day Weather Forecast

Advertisements
Track Severe Weather on mobile